sensor_id;sensor_type;location;lat;lon;timestamp;noise_LAeq;noise_LA_min;noise_LA_max;noise_LA01;noise_LA95
74292;Laerm;62687;55.738;37.516;2023-04-01T00:01:05;69.68;61.98;74.51;;
74292;Laerm;62687;55.738;37.516;2023-04-01T00:03:50;70.68;64.56;75.92;;
74292;Laerm;62687;55.738;37.516;2023-04-01T00:06:34;70.66;65.07;76.55;;
74292;Laerm;62687;55.738;37.516;2023-04-01T00:09:19;69.72;65.24;77.62;;
74292;Laerm;62687;55.738;37.516;2023-04-01T00:12:03;70.10;62.28;75.67;;
74292;Laerm;62687;55.738;37.516;2023-04-01T00:14:48;69.95;63.84;75.38;;
74292;Laerm;62687;55.738;37.516;2023-04-01T00:17:32;71.25;63.98;77.92;;
74292;Laerm;62687;55.738;37.516;2023-04-01T00:20:17;70.90;62.69;77.98;;
74292;Laerm;62687;55.738;37.516;2023-04-01T00:23:02;69.51;63.14;74.79;;
74292;Laerm;62687;55.738;37.516;2023-04-01T00:25:46;70.25;65.58;74.29;;
74292;Laerm;62687;55.738;37.516;2023-04-01T00:28:34;69.96;63.96;75.68;;
74292;Laerm;62687;55.738;37.516;2023-04-01T00:31:19;71.33;64.80;89.32;;
74292;Laerm;62687;55.738;37.516;2023-04-01T00:34:04;69.38;63.97;76.05;;
74292;Laerm;62687;55.738;37.516;2023-04-01T00:36:48;72.03;64.84;83.15;;
74292;Laerm;62687;55.738;37.516;2023-04-01T00:39:34;70.42;65.88;77.07;;
74292;Laerm;62687;55.738;37.516;2023-04-01T00:42:18;69.45;60.85;80.90;;
74292;Laerm;62687;55.738;37.516;2023-04-01T00:48:20;69.88;63.53;74.79;;
74292;Laerm;62687;55.738;37.516;2023-04-01T00:51:10;69.39;62.44;74.41;;
74292;Laerm;62687;55.738;37.516;2023-04-01T00:53:57;69.83;64.58;77.77;;
74292;Laerm;62687;55.738;37.516;2023-04-01T00:56:50;69.94;64.23;76.86;;
74292;Laerm;62687;55.738;37.516;2023-04-01T00:59:43;68.67;61.24;73.06;;
74292;Laerm;62687;55.738;37.516;2023-04-01T01:02:27;69.51;61.32;74.69;;
74292;Laerm;62687;55.738;37.516;2023-04-01T01:05:14;70.33;61.55;79.23;;
74292;Laerm;62687;55.738;37.516;2023-04-01T01:08:24;70.00;62.83;74.46;;
74292;Laerm;62687;55.738;37.516;2023-04-01T01:11:16;69.35;62.04;73.82;;
74292;Laerm;62687;55.738;37.516;2023-04-01T01:14:23;71.68;63.44;82.15;;
74292;Laerm;62687;55.738;37.516;2023-04-01T01:17:13;69.12;63.15;73.91;;
74292;Laerm;62687;55.738;37.516;2023-04-01T01:20:30;69.09;62.66;76.44;;
74292;Laerm;62687;55.738;37.516;2023-04-01T01:23:36;68.78;60.91;75.30;;
74292;Laerm;62687;55.738;37.516;2023-04-01T01:33:02;68.36;61.59;73.87;;
74292;Laerm;62687;55.738;37.516;2023-04-01T01:35:50;68.97;63.38;74.17;;
74292;Laerm;62687;55.738;37.516;2023-04-01T01:38:36;69.28;63.08;77.21;;
74292;Laerm;62687;55.738;37.516;2023-04-01T01:41:23;69.70;63.00;75.22;;
74292;Laerm;62687;55.738;37.516;2023-04-01T01:44:12;70.09;64.37;74.87;;
74292;Laerm;62687;55.738;37.516;2023-04-01T01:46:59;69.99;62.88;77.93;;
74292;Laerm;62687;55.738;37.516;2023-04-01T01:49:44;69.77;60.45;78.33;;
74292;Laerm;62687;55.738;37.516;2023-04-01T01:52:29;69.62;60.42;75.50;;
74292;Laerm;62687;55.738;37.516;2023-04-01T01:55:27;69.97;62.13;75.26;;
74292;Laerm;62687;55.738;37.516;2023-04-01T02:01:23;69.19;62.48;74.46;;
74292;Laerm;62687;55.738;37.516;2023-04-01T02:04:09;69.41;64.07;77.18;;
74292;Laerm;62687;55.738;37.516;2023-04-01T02:07:03;69.35;59.98;75.72;;
74292;Laerm;62687;55.738;37.516;2023-04-01T02:09:49;69.95;62.80;77.42;;
74292;Laerm;62687;55.738;37.516;2023-04-01T02:12:35;69.30;61.73;77.23;;
74292;Laerm;62687;55.738;37.516;2023-04-01T02:15:21;69.83;61.81;84.83;;
74292;Laerm;62687;55.738;37.516;2023-04-01T02:18:07;69.98;62.18;75.47;;
74292;Laerm;62687;55.738;37.516;2023-04-01T02:20:52;68.70;59.47;73.69;;
74292;Laerm;62687;55.738;37.516;2023-04-01T02:23:37;68.97;61.18;76.83;;
74292;Laerm;62687;55.738;37.516;2023-04-01T02:26:23;69.46;60.43;75.46;;
74292;Laerm;62687;55.738;37.516;2023-04-01T02:29:11;69.72;61.49;74.90;;
74292;Laerm;62687;55.738;37.516;2023-04-01T02:31:56;69.44;63.51;75.85;;
74292;Laerm;62687;55.738;37.516;2023-04-01T02:34:40;69.70;64.03;74.12;;
74292;Laerm;62687;55.738;37.516;2023-04-01T02:37:26;69.97;63.21;76.96;;
74292;Laerm;62687;55.738;37.516;2023-04-01T02:40:12;69.20;63.58;75.00;;
74292;Laerm;62687;55.738;37.516;2023-04-01T02:42:57;69.58;64.66;75.58;;
74292;Laerm;62687;55.738;37.516;2023-04-01T02:45:43;69.19;63.13;77.03;;
74292;Laerm;62687;55.738;37.516;2023-04-01T02:48:27;69.68;62.23;74.65;;
74292;Laerm;62687;55.738;37.516;2023-04-01T02:51:12;69.53;62.73;75.60;;
74292;Laerm;62687;55.738;37.516;2023-04-01T02:53:56;70.26;65.12;75.86;;
74292;Laerm;62687;55.738;37.516;2023-04-01T02:56:40;69.44;62.92;73.97;;
74292;Laerm;62687;55.738;37.516;2023-04-01T02:59:24;70.17;64.00;74.51;;
74292;Laerm;62687;55.738;37.516;2023-04-01T03:02:08;70.01;63.30;76.13;;
74292;Laerm;62687;55.738;37.516;2023-04-01T03:04:53;68.91;61.45;75.66;;
74292;Laerm;62687;55.738;37.516;2023-04-01T03:07:37;70.13;63.92;75.11;;
74292;Laerm;62687;55.738;37.516;2023-04-01T03:10:21;70.66;64.81;75.45;;
74292;Laerm;62687;55.738;37.516;2023-04-01T03:13:05;70.41;64.69;76.27;;
74292;Laerm;62687;55.738;37.516;2023-04-01T03:15:49;70.36;62.54;75.78;;
74292;Laerm;62687;55.738;37.516;2023-04-01T03:18:33;71.42;64.71;75.96;;
74292;Laerm;62687;55.738;37.516;2023-04-01T03:21:20;70.88;65.43;75.01;;
74292;Laerm;62687;55.738;37.516;2023-04-01T03:24:05;71.46;66.12;76.23;;
74292;Laerm;62687;55.738;37.516;2023-04-01T03:26:50;71.32;64.28;75.90;;
74292;Laerm;62687;55.738;37.516;2023-04-01T03:29:34;70.49;63.58;75.45;;
74292;Laerm;62687;55.738;37.516;2023-04-01T03:32:18;70.72;65.96;74.52;;
74292;Laerm;62687;55.738;37.516;2023-04-01T03:35:03;71.17;67.11;76.14;;
74292;Laerm;62687;55.738;37.516;2023-04-01T03:37:47;71.50;65.82;78.87;;
74292;Laerm;62687;55.738;37.516;2023-04-01T03:40:31;71.46;65.46;75.76;;
74292;Laerm;62687;55.738;37.516;2023-04-01T03:43:16;71.66;65.88;75.73;;
74292;Laerm;62687;55.738;37.516;2023-04-01T03:46:01;71.45;66.43;75.70;;
74292;Laerm;62687;55.738;37.516;2023-04-01T03:48:46;71.56;67.13;76.05;;
74292;Laerm;62687;55.738;37.516;2023-04-01T03:51:30;71.90;66.04;77.76;;
74292;Laerm;62687;55.738;37.516;2023-04-01T03:54:14;71.85;67.72;75.16;;
74292;Laerm;62687;55.738;37.516;2023-04-01T03:56:58;71.55;66.96;75.70;;
74292;Laerm;62687;55.738;37.516;2023-04-01T03:59:43;71.94;67.13;80.63;;
74292;Laerm;62687;55.738;37.516;2023-04-01T04:02:27;71.12;66.76;75.27;;
74292;Laerm;62687;55.738;37.516;2023-04-01T04:05:11;71.93;67.16;77.65;;
74292;Laerm;62687;55.738;37.516;2023-04-01T04:07:57;71.10;65.20;76.19;;
74292;Laerm;62687;55.738;37.516;2023-04-01T04:10:41;72.00;67.69;75.38;;
74292;Laerm;62687;55.738;37.516;2023-04-01T04:13:28;73.01;67.97;81.86;;
74292;Laerm;62687;55.738;37.516;2023-04-01T04:16:12;72.55;67.33;77.15;;
74292;Laerm;62687;55.738;37.516;2023-04-01T04:18:59;71.92;66.67;75.42;;
74292;Laerm;62687;55.738;37.516;2023-04-01T04:21:43;72.80;66.96;79.47;;
74292;Laerm;62687;55.738;37.516;2023-04-01T04:24:27;72.79;68.79;76.40;;
74292;Laerm;62687;55.738;37.516;2023-04-01T04:27:11;72.85;67.66;78.45;;
74292;Laerm;62687;55.738;37.516;2023-04-01T04:29:55;73.91;69.28;86.60;;
74292;Laerm;62687;55.738;37.516;2023-04-01T04:32:39;72.79;67.75;78.81;;
74292;Laerm;62687;55.738;37.516;2023-04-01T04:35:25;72.95;68.08;76.86;;
74292;Laerm;62687;55.738;37.516;2023-04-01T04:38:09;73.16;69.29;76.78;;
74292;Laerm;62687;55.738;37.516;2023-04-01T04:40:56;72.92;68.44;76.89;;
74292;Laerm;62687;55.738;37.516;2023-04-01T04:43:41;73.46;69.85;77.11;;
74292;Laerm;62687;55.738;37.516;2023-04-01T04:46:25;73.14;65.26;83.18;;
74292;Laerm;62687;55.738;37.516;2023-04-01T04:49:09;73.21;68.59;77.05;;
74292;Laerm;62687;55.738;37.516;2023-04-01T04:51:54;73.50;69.50;80.30;;
74292;Laerm;62687;55.738;37.516;2023-04-01T04:54:41;72.81;67.35;77.57;;
74292;Laerm;62687;55.738;37.516;2023-04-01T04:57:25;73.32;66.40;88.07;;
74292;Laerm;62687;55.738;37.516;2023-04-01T05:00:09;73.23;68.72;77.15;;
74292;Laerm;62687;55.738;37.516;2023-04-01T05:02:54;73.13;68.57;76.83;;
74292;Laerm;62687;55.738;37.516;2023-04-01T05:05:39;73.57;68.82;79.12;;
74292;Laerm;62687;55.738;37.516;2023-04-01T05:08:23;73.87;69.73;77.95;;
74292;Laerm;62687;55.738;37.516;2023-04-01T05:11:10;73.68;70.29;77.88;;
74292;Laerm;62687;55.738;37.516;2023-04-01T05:13:55;73.86;68.53;77.99;;
74292;Laerm;62687;55.738;37.516;2023-04-01T05:16:39;73.89;69.43;78.04;;
74292;Laerm;62687;55.738;37.516;2023-04-01T05:19:24;73.52;68.90;78.89;;
74292;Laerm;62687;55.738;37.516;2023-04-01T05:22:08;74.46;69.41;79.68;;
74292;Laerm;62687;55.738;37.516;2023-04-01T05:24:52;73.98;69.58;78.18;;
74292;Laerm;62687;55.738;37.516;2023-04-01T05:27:36;73.67;69.43;79.26;;
74292;Laerm;62687;55.738;37.516;2023-04-01T05:30:21;73.75;69.59;83.09;;
74292;Laerm;62687;55.738;37.516;2023-04-01T05:33:05;73.97;70.01;77.68;;
74292;Laerm;62687;55.738;37.516;2023-04-01T05:35:49;74.35;70.94;78.61;;
74292;Laerm;62687;55.738;37.516;2023-04-01T05:38:34;74.12;69.77;88.50;;
74292;Laerm;62687;55.738;37.516;2023-04-01T05:41:18;73.97;69.55;79.85;;
74292;Laerm;62687;55.738;37.516;2023-04-01T05:44:03;74.49;70.58;79.38;;
74292;Laerm;62687;55.738;37.516;2023-04-01T05:46:47;73.98;69.93;77.90;;
74292;Laerm;62687;55.738;37.516;2023-04-01T05:49:33;74.31;70.86;80.00;;
74292;Laerm;62687;55.738;37.516;2023-04-01T05:52:17;74.54;68.70;91.39;;
74292;Laerm;62687;55.738;37.516;2023-04-01T05:55:02;73.77;68.33;82.61;;
74292;Laerm;62687;55.738;37.516;2023-04-01T05:57:46;73.63;68.46;77.45;;
74292;Laerm;62687;55.738;37.516;2023-04-01T06:00:33;73.76;69.56;77.97;;
74292;Laerm;62687;55.738;37.516;2023-04-01T06:03:17;74.16;69.82;77.43;;
74292;Laerm;62687;55.738;37.516;2023-04-01T06:06:01;73.89;69.71;78.54;;
74292;Laerm;62687;55.738;37.516;2023-04-01T06:08:46;73.55;69.68;78.08;;
74292;Laerm;62687;55.738;37.516;2023-04-01T06:11:37;73.55;69.58;78.96;;
74292;Laerm;62687;55.738;37.516;2023-04-01T06:26:51;73.67;69.09;77.88;;
74292;Laerm;62687;55.738;37.516;2023-04-01T06:45:34;74.32;70.44;77.76;;
74292;Laerm;62687;55.738;37.516;2023-04-01T06:48:41;74.64;71.25;79.00;;
74292;Laerm;62687;55.738;37.516;2023-04-01T06:51:53;75.54;70.39;80.58;;
74292;Laerm;62687;55.738;37.516;2023-04-01T06:54:47;74.64;70.71;77.64;;
74292;Laerm;62687;55.738;37.516;2023-04-01T06:57:46;74.68;70.84;79.35;;
74292;Laerm;62687;55.738;37.516;2023-04-01T07:00:35;75.16;70.24;79.85;;
74292;Laerm;62687;55.738;37.516;2023-04-01T07:06:19;75.68;70.27;80.13;;
74292;Laerm;62687;55.738;37.516;2023-04-01T07:09:12;75.00;71.04;79.77;;
74292;Laerm;62687;55.738;37.516;2023-04-01T07:12:01;74.08;69.97;79.02;;
74292;Laerm;62687;55.738;37.516;2023-04-01T07:14:48;74.18;69.98;81.70;;
74292;Laerm;62687;55.738;37.516;2023-04-01T07:17:36;74.13;70.58;81.84;;
74292;Laerm;62687;55.738;37.516;2023-04-01T07:20:26;74.11;68.50;78.56;;
74292;Laerm;62687;55.738;37.516;2023-04-01T07:23:22;74.33;70.38;82.03;;
74292;Laerm;62687;55.738;37.516;2023-04-01T07:26:23;74.29;70.18;84.09;;
74292;Laerm;62687;55.738;37.516;2023-04-01T07:29:13;74.27;70.22;79.27;;
74292;Laerm;62687;55.738;37.516;2023-04-01T07:44:11;74.90;70.61;82.12;;
74292;Laerm;62687;55.738;37.516;2023-04-01T07:50:11;74.57;70.11;79.28;;
74292;Laerm;62687;55.738;37.516;2023-04-01T07:53:08;74.55;68.93;79.76;;
74292;Laerm;62687;55.738;37.516;2023-04-01T07:56:12;75.33;70.82;87.09;;
74292;Laerm;62687;55.738;37.516;2023-04-01T07:59:12;74.79;69.74;78.94;;
74292;Laerm;62687;55.738;37.516;2023-04-01T08:14:42;74.42;70.38;80.15;;
74292;Laerm;62687;55.738;37.516;2023-04-01T08:26:13;74.59;70.12;80.87;;
74292;Laerm;62687;55.738;37.516;2023-04-01T08:29:10;74.70;70.33;85.91;;
74292;Laerm;62687;55.738;37.516;2023-04-01T08:32:03;73.76;68.94;82.54;;
74292;Laerm;62687;55.738;37.516;2023-04-01T08:35:08;74.79;70.71;84.00;;
74292;Laerm;62687;55.738;37.516;2023-04-01T08:37:56;74.53;70.83;78.98;;
74292;Laerm;62687;55.738;37.516;2023-04-01T08:53:07;74.41;70.48;82.38;;
74292;Laerm;62687;55.738;37.516;2023-04-01T08:56:17;75.01;69.89;86.71;;
74292;Laerm;62687;55.738;37.516;2023-04-01T09:02:18;74.64;70.56;79.70;;
74292;Laerm;62687;55.738;37.516;2023-04-01T09:08:22;74.29;69.58;80.45;;
74292;Laerm;62687;55.738;37.516;2023-04-01T09:14:31;74.20;69.50;79.77;;
74292;Laerm;62687;55.738;37.516;2023-04-01T09:21:19;73.60;69.78;82.29;;
74292;Laerm;62687;55.738;37.516;2023-04-01T09:24:35;73.86;70.40;79.06;;
74292;Laerm;62687;55.738;37.516;2023-04-01T09:37:33;73.70;69.84;81.42;;
74292;Laerm;62687;55.738;37.516;2023-04-01T09:40:14;73.91;70.21;78.12;;
74292;Laerm;62687;55.738;37.516;2023-04-01T09:46:26;73.93;69.43;85.94;;
74292;Laerm;62687;55.738;37.516;2023-04-01T10:01:48;73.26;69.59;77.70;;
74292;Laerm;62687;55.738;37.516;2023-04-01T10:17:47;72.19;67.98;75.76;;
74292;Laerm;62687;55.738;37.516;2023-04-01T11:34:55;73.33;69.33;79.60;;
74292;Laerm;62687;55.738;37.516;2023-04-01T11:38:00;73.98;69.58;81.90;;
74292;Laerm;62687;55.738;37.516;2023-04-01T11:41:51;74.71;70.68;87.06;;
74292;Laerm;62687;55.738;37.516;2023-04-01T11:53:26;73.50;69.31;82.72;;
74292;Laerm;62687;55.738;37.516;2023-04-01T11:56:49;73.44;69.56;78.14;;
74292;Laerm;62687;55.738;37.516;2023-04-01T11:59:42;73.50;69.80;86.81;;
74292;Laerm;62687;55.738;37.516;2023-04-01T12:05:32;73.86;69.96;81.02;;
74292;Laerm;62687;55.738;37.516;2023-04-01T12:08:45;73.77;69.77;89.33;;
74292;Laerm;62687;55.738;37.516;2023-04-01T12:18:14;73.50;69.52;77.14;;
74292;Laerm;62687;55.738;37.516;2023-04-01T12:27:31;73.89;70.35;78.20;;
74292;Laerm;62687;55.738;37.516;2023-04-01T12:37:24;73.05;68.48;80.72;;
74292;Laerm;62687;55.738;37.516;2023-04-01T12:40:06;73.36;69.66;78.27;;
74292;Laerm;62687;55.738;37.516;2023-04-01T12:43:26;73.24;69.59;77.19;;
74292;Laerm;62687;55.738;37.516;2023-04-01T12:46:31;73.34;69.38;79.41;;
74292;Laerm;62687;55.738;37.516;2023-04-01T12:49:31;72.81;67.92;80.36;;
74292;Laerm;62687;55.738;37.516;2023-04-01T12:55:43;72.53;68.65;83.24;;
74292;Laerm;62687;55.738;37.516;2023-04-01T12:58:56;73.41;68.71;77.48;;
74292;Laerm;62687;55.738;37.516;2023-04-01T13:10:25;72.50;67.75;76.94;;
74292;Laerm;62687;55.738;37.516;2023-04-01T13:13:43;73.02;68.96;77.67;;
74292;Laerm;62687;55.738;37.516;2023-04-01T13:16:37;72.91;69.06;80.25;;
74292;Laerm;62687;55.738;37.516;2023-04-01T13:19:31;73.20;69.10;76.76;;
74292;Laerm;62687;55.738;37.516;2023-04-01T13:25:06;73.79;69.94;77.56;;
74292;Laerm;62687;55.738;37.516;2023-04-01T13:28:00;73.56;68.18;77.65;;
74292;Laerm;62687;55.738;37.516;2023-04-01T13:42:47;73.50;68.78;83.33;;
74292;Laerm;62687;55.738;37.516;2023-04-01T13:54:42;73.54;70.03;79.76;;
74292;Laerm;62687;55.738;37.516;2023-04-01T14:00:55;72.11;66.81;78.79;;
74292;Laerm;62687;55.738;37.516;2023-04-01T14:07:08;71.78;67.13;82.63;;
74292;Laerm;62687;55.738;37.516;2023-04-01T14:12:58;73.01;69.24;82.12;;
74292;Laerm;62687;55.738;37.516;2023-04-01T14:22:07;73.60;69.90;77.27;;
74292;Laerm;62687;55.738;37.516;2023-04-01T14:37:39;72.97;68.25;77.21;;
74292;Laerm;62687;55.738;37.516;2023-04-01T14:48:59;71.51;67.34;78.51;;
74292;Laerm;62687;55.738;37.516;2023-04-01T14:51:45;71.16;66.89;75.87;;
74292;Laerm;62687;55.738;37.516;2023-04-01T14:54:32;70.93;67.24;74.73;;
74292;Laerm;62687;55.738;37.516;2023-04-01T14:57:23;71.17;66.78;75.38;;
74292;Laerm;62687;55.738;37.516;2023-04-01T15:00:16;71.82;67.52;85.10;;
74292;Laerm;62687;55.738;37.516;2023-04-01T15:03:08;71.16;67.13;77.50;;
74292;Laerm;62687;55.738;37.516;2023-04-01T15:15:27;70.94;67.35;75.43;;
74292;Laerm;62687;55.738;37.516;2023-04-01T15:18:56;70.43;64.81;75.19;;
74292;Laerm;62687;55.738;37.516;2023-04-01T15:34:09;73.22;69.86;76.74;;
74292;Laerm;62687;55.738;37.516;2023-04-01T15:37:28;73.86;69.12;84.74;;
74292;Laerm;62687;55.738;37.516;2023-04-01T15:40:30;74.14;70.95;77.52;;
74292;Laerm;62687;55.738;37.516;2023-04-01T15:49:42;74.12;69.93;84.25;;
74292;Laerm;62687;55.738;37.516;2023-04-01T15:56:13;73.43;69.31;77.11;;
74292;Laerm;62687;55.738;37.516;2023-04-01T16:02:42;72.90;68.31;79.36;;
74292;Laerm;62687;55.738;37.516;2023-04-01T16:14:50;73.36;69.66;81.12;;
74292;Laerm;62687;55.738;37.516;2023-04-01T16:23:56;73.37;69.40;77.13;;
74292;Laerm;62687;55.738;37.516;2023-04-01T16:26:50;72.84;68.57;82.55;;
74292;Laerm;62687;55.738;37.516;2023-04-01T16:32:41;73.42;69.22;79.06;;
74292;Laerm;62687;55.738;37.516;2023-04-01T16:35:58;73.06;68.84;79.59;;
74292;Laerm;62687;55.738;37.516;2023-04-01T16:48:12;73.47;69.40;79.14;;
74292;Laerm;62687;55.738;37.516;2023-04-01T16:51:03;72.76;69.56;77.76;;
74292;Laerm;62687;55.738;37.516;2023-04-01T17:15:30;73.34;69.33;85.05;;
74292;Laerm;62687;55.738;37.516;2023-04-01T17:18:29;73.29;68.86;83.91;;
74292;Laerm;62687;55.738;37.516;2023-04-01T17:24:49;73.31;67.56;77.76;;
74292;Laerm;62687;55.738;37.516;2023-04-01T17:27:51;72.77;67.54;76.30;;
74292;Laerm;62687;55.738;37.516;2023-04-01T17:33:57;73.12;68.69;77.25;;
74292;Laerm;62687;55.738;37.516;2023-04-01T17:46:10;73.11;68.82;80.67;;
74292;Laerm;62687;55.738;37.516;2023-04-01T17:49:31;73.06;68.56;77.56;;
74292;Laerm;62687;55.738;37.516;2023-04-01T17:52:21;73.31;69.08;78.56;;
74292;Laerm;62687;55.738;37.516;2023-04-01T18:04:07;74.06;68.30;95.39;;
74292;Laerm;62687;55.738;37.516;2023-04-01T18:16:38;74.17;69.78;84.59;;
74292;Laerm;62687;55.738;37.516;2023-04-01T18:20:02;73.33;68.87;79.95;;
74292;Laerm;62687;55.738;37.516;2023-04-01T18:26:18;73.54;69.19;78.18;;
74292;Laerm;62687;55.738;37.516;2023-04-01T18:38:28;72.18;67.52;77.63;;
74292;Laerm;62687;55.738;37.516;2023-04-01T18:41:36;73.54;68.64;77.28;;
74292;Laerm;62687;55.738;37.516;2023-04-01T18:47:57;72.44;67.73;76.62;;
74292;Laerm;62687;55.738;37.516;2023-04-01T18:50:51;73.26;69.68;79.03;;
74292;Laerm;62687;55.738;37.516;2023-04-01T18:53:41;73.04;68.31;77.62;;
74292;Laerm;62687;55.738;37.516;2023-04-01T18:56:39;73.67;69.61;77.92;;
74292;Laerm;62687;55.738;37.516;2023-04-01T18:59:34;73.52;68.80;83.75;;
74292;Laerm;62687;55.738;37.516;2023-04-01T19:02:36;73.00;67.45;80.85;;
74292;Laerm;62687;55.738;37.516;2023-04-01T19:05:30;73.11;68.28;76.75;;
74292;Laerm;62687;55.738;37.516;2023-04-01T19:08:18;73.46;69.45;80.74;;
74292;Laerm;62687;55.738;37.516;2023-04-01T19:17:47;73.42;68.86;83.11;;
74292;Laerm;62687;55.738;37.516;2023-04-01T19:20:39;73.02;67.71;76.79;;
74292;Laerm;62687;55.738;37.516;2023-04-01T19:26:20;73.54;68.07;78.28;;
74292;Laerm;62687;55.738;37.516;2023-04-01T19:32:16;72.87;66.47;79.42;;
74292;Laerm;62687;55.738;37.516;2023-04-01T19:44:13;72.92;68.51;77.59;;
74292;Laerm;62687;55.738;37.516;2023-04-01T19:50:19;73.07;67.27;78.10;;
74292;Laerm;62687;55.738;37.516;2023-04-01T19:53:19;72.86;68.51;76.64;;
74292;Laerm;62687;55.738;37.516;2023-04-01T19:56:15;72.68;68.12;77.73;;
74292;Laerm;62687;55.738;37.516;2023-04-01T20:02:01;73.56;68.70;87.27;;
74292;Laerm;62687;55.738;37.516;2023-04-01T20:04:54;72.83;68.45;76.57;;
74292;Laerm;62687;55.738;37.516;2023-04-01T20:07:52;73.13;68.19;78.07;;
74292;Laerm;62687;55.738;37.516;2023-04-01T20:16:50;72.91;68.34;78.01;;
74292;Laerm;62687;55.738;37.516;2023-04-01T20:19:44;73.13;67.19;78.76;;
74292;Laerm;62687;55.738;37.516;2023-04-01T20:22:38;73.00;67.10;81.15;;
74292;Laerm;62687;55.738;37.516;2023-04-01T20:25:43;73.14;68.34;78.62;;
74292;Laerm;62687;55.738;37.516;2023-04-01T20:31:43;72.25;66.90;76.75;;
74292;Laerm;62687;55.738;37.516;2023-04-01T20:41:28;72.37;67.26;80.05;;
74292;Laerm;62687;55.738;37.516;2023-04-01T20:50:52;72.27;65.73;76.34;;
74292;Laerm;62687;55.738;37.516;2023-04-01T21:00:24;72.19;68.30;76.67;;
74292;Laerm;62687;55.738;37.516;2023-04-01T21:12:46;72.29;67.41;83.15;;
74292;Laerm;62687;55.738;37.516;2023-04-01T21:21:46;72.06;66.86;80.80;;
74292;Laerm;62687;55.738;37.516;2023-04-01T21:27:42;72.33;66.55;77.27;;
74292;Laerm;62687;55.738;37.516;2023-04-01T21:34:14;72.83;66.00;90.95;;
74292;Laerm;62687;55.738;37.516;2023-04-01T21:46:43;71.62;64.13;76.56;;
74292;Laerm;62687;55.738;37.516;2023-04-01T21:53:08;71.82;65.25;79.22;;
74292;Laerm;62687;55.738;37.516;2023-04-01T22:07:59;70.93;65.55;76.71;;
74292;Laerm;62687;55.738;37.516;2023-04-01T22:11:03;70.53;65.59;81.19;;
74292;Laerm;62687;55.738;37.516;2023-04-01T22:13:59;70.94;65.68;75.60;;
74292;Laerm;62687;55.738;37.516;2023-04-01T22:19:41;70.71;64.40;76.02;;
74292;Laerm;62687;55.738;37.516;2023-04-01T22:23:11;70.41;63.33;78.06;;
74292;Laerm;62687;55.738;37.516;2023-04-01T22:28:47;71.07;62.18;76.40;;
74292;Laerm;62687;55.738;37.516;2023-04-01T22:40:23;70.45;64.29;76.15;;
74292;Laerm;62687;55.738;37.516;2023-04-01T22:43:25;70.56;64.73;75.12;;
74292;Laerm;62687;55.738;37.516;2023-04-01T22:52:24;70.29;65.79;77.36;;
74292;Laerm;62687;55.738;37.516;2023-04-01T22:55:19;70.07;63.97;75.56;;
74292;Laerm;62687;55.738;37.516;2023-04-01T22:58:13;69.84;62.99;75.61;;
74292;Laerm;62687;55.738;37.516;2023-04-01T23:01:04;70.28;63.17;74.81;;
74292;Laerm;62687;55.738;37.516;2023-04-01T23:03:51;70.28;64.66;89.38;;
74292;Laerm;62687;55.738;37.516;2023-04-01T23:06:41;69.35;62.67;75.03;;
74292;Laerm;62687;55.738;37.516;2023-04-01T23:09:30;70.55;64.30;76.57;;
74292;Laerm;62687;55.738;37.516;2023-04-01T23:12:16;70.15;64.43;75.47;;
74292;Laerm;62687;55.738;37.516;2023-04-01T23:15:03;70.32;64.07;75.24;;
74292;Laerm;62687;55.738;37.516;2023-04-01T23:21:18;69.84;63.24;74.81;;
74292;Laerm;62687;55.738;37.516;2023-04-01T23:27:05;69.89;62.02;76.08;;
74292;Laerm;62687;55.738;37.516;2023-04-01T23:29:52;70.08;63.08;76.02;;
74292;Laerm;62687;55.738;37.516;2023-04-01T23:32:36;70.16;62.55;78.06;;
74292;Laerm;62687;55.738;37.516;2023-04-01T23:35:20;71.01;63.97;81.93;;
74292;Laerm;62687;55.738;37.516;2023-04-01T23:38:04;69.68;64.66;79.07;;
74292;Laerm;62687;55.738;37.516;2023-04-01T23:40:50;69.26;63.94;74.51;;
74292;Laerm;62687;55.738;37.516;2023-04-01T23:43:40;69.27;61.60;74.36;;
74292;Laerm;62687;55.738;37.516;2023-04-01T23:46:26;70.60;62.63;87.79;;
74292;Laerm;62687;55.738;37.516;2023-04-01T23:49:19;69.81;62.91;75.81;;
74292;Laerm;62687;55.738;37.516;2023-04-01T23:52:23;70.38;62.68;81.51;;
74292;Laerm;62687;55.738;37.516;2023-04-01T23:58:15;70.07;63.57;75.54;;
